createdAt,value
2022-10-13T00:00:08.229Z,7.60
2022-10-13T00:02:34.833Z,9.27
2022-10-13T00:05:01.521Z,8.05
2022-10-13T00:07:28.211Z,7.68
2022-10-13T00:09:54.833Z,7.35
2022-10-13T00:12:21.576Z,9.55
2022-10-13T00:14:48.322Z,10.13
2022-10-13T00:17:15.026Z,8.25
2022-10-13T00:19:41.619Z,6.60
2022-10-13T00:22:09.236Z,7.50
2022-10-13T00:24:35.987Z,10.57
2022-10-13T00:27:02.653Z,8.35
2022-10-13T00:29:29.306Z,7.15
2022-10-13T00:31:55.903Z,6.70
2022-10-13T00:34:22.495Z,8.98
2022-10-13T00:36:49.294Z,7.20
2022-10-13T00:39:16.024Z,11.35
2022-10-13T00:41:42.634Z,7.22
2022-10-13T00:44:47.043Z,7.32
2022-10-13T00:47:13.734Z,7.57
2022-10-13T00:49:40.414Z,9.02
2022-10-13T00:52:07.183Z,8.00
2022-10-13T00:54:34.185Z,7.85
2022-10-13T00:57:06.272Z,8.40
2022-10-13T00:59:34.486Z,6.85
2022-10-13T01:02:02.335Z,5.88
2022-10-13T01:04:34.735Z,11.05
2022-10-13T01:07:02.735Z,7.18
2022-10-13T01:09:36.084Z,9.05
2022-10-13T01:12:26.651Z,6.03
2022-10-13T01:15:08.898Z,8.18
2022-10-13T01:18:02.614Z,7.15
2022-10-13T01:21:00.115Z,5.05
2022-10-13T01:23:52.359Z,6.82
2022-10-13T01:26:49.799Z,6.22
2022-10-13T01:29:34.692Z,7.18
2022-10-13T01:32:46.179Z,8.23
2022-10-13T01:35:15.731Z,7.25
2022-10-13T01:37:49.090Z,11.77
2022-10-13T01:40:24.981Z,10.35
2022-10-13T01:43:07.029Z,8.93
2022-10-13T01:45:50.252Z,6.68
2022-10-13T01:48:19.822Z,6.50
2022-10-13T01:50:47.904Z,6.28
2022-10-13T01:53:18.036Z,4.80
2022-10-13T01:55:53.444Z,6.28
2022-10-13T01:58:21.023Z,10.23
2022-10-13T02:01:04.380Z,7.90
2022-10-13T02:03:46.393Z,6.75
2022-10-13T02:06:30.783Z,8.38
2022-10-13T02:09:10.673Z,4.78
2022-10-13T02:11:44.212Z,5.93
2022-10-13T02:14:20.902Z,3.53
2022-10-13T02:16:49.666Z,3.83
2022-10-13T02:19:18.898Z,5.82
2022-10-13T02:21:47.055Z,5.80
2022-10-13T02:24:14.457Z,4.78
2022-10-13T02:26:42.055Z,7.50
2022-10-13T02:29:10.604Z,5.45
2022-10-13T02:31:37.501Z,4.20
2022-10-13T02:34:04.817Z,7.82
2022-10-13T02:36:31.786Z,5.65
2022-10-13T02:38:59.022Z,6.90
2022-10-13T02:41:25.735Z,6.85
2022-10-13T02:43:52.470Z,4.82
2022-10-13T02:46:20.208Z,6.40
2022-10-13T02:48:46.838Z,3.35
2022-10-13T02:51:14.019Z,5.68
2022-10-13T02:53:40.687Z,5.95
2022-10-13T02:56:08.175Z,4.70
2022-10-13T02:58:35.285Z,8.55
2022-10-13T03:01:10.597Z,6.60
2022-10-13T03:03:37.816Z,4.35
2022-10-13T03:06:05.291Z,6.72
2022-10-13T03:08:33.779Z,5.25
2022-10-13T03:11:00.678Z,4.45
2022-10-13T03:13:27.558Z,3.60
2022-10-13T03:15:54.170Z,4.82
2022-10-13T03:18:20.851Z,8.02
2022-10-13T03:20:57.060Z,6.55
2022-10-13T03:23:24.442Z,3.67
2022-10-13T03:25:51.136Z,6.60
2022-10-13T03:28:17.820Z,7.70
2022-10-13T03:30:44.548Z,5.00
2022-10-13T03:33:11.157Z,5.15
2022-10-13T03:35:38.040Z,4.50
2022-10-13T03:38:04.806Z,3.30
2022-10-13T03:40:31.440Z,4.22
2022-10-13T03:42:58.165Z,3.17
2022-10-13T03:45:24.932Z,3.85
2022-10-13T03:47:51.557Z,4.22
2022-10-13T03:50:18.260Z,5.00
2022-10-13T03:52:45.646Z,5.78
2022-10-13T03:55:12.390Z,2.90
2022-10-13T03:57:39.012Z,4.22
2022-10-13T04:00:10.665Z,5.40
2022-10-13T04:02:37.260Z,3.88
2022-10-13T04:05:04.091Z,3.53
2022-10-13T04:07:31.070Z,5.93
2022-10-13T04:09:57.675Z,3.25
2022-10-13T04:12:24.523Z,4.28
2022-10-13T04:14:51.223Z,7.90
2022-10-13T04:17:17.853Z,3.28
2022-10-13T04:19:45.067Z,6.55
2022-10-13T04:22:12.119Z,4.50
2022-10-13T04:24:38.809Z,3.47
2022-10-13T04:27:05.503Z,4.43
2022-10-13T04:29:32.196Z,6.30
2022-10-13T04:32:01.663Z,7.57
2022-10-13T04:34:28.339Z,5.07
2022-10-13T04:36:54.935Z,4.82
2022-10-13T04:39:21.691Z,6.00
2022-10-13T04:41:48.535Z,6.00
2022-10-13T04:44:15.158Z,4.40
2022-10-13T04:46:41.902Z,2.90
2022-10-13T04:49:10.786Z,5.05
2022-10-13T04:51:38.483Z,4.03
2022-10-13T04:54:05.675Z,2.75
2022-10-13T04:56:32.556Z,4.60
2022-10-13T04:59:00.086Z,3.65
2022-10-13T05:01:27.232Z,6.03
2022-10-13T05:03:59.006Z,3.05
2022-10-13T05:06:28.151Z,6.05
2022-10-13T05:08:55.961Z,5.18
2022-10-13T05:11:25.495Z,4.75
2022-10-13T05:13:52.450Z,3.88
2022-10-13T05:16:21.191Z,3.60
2022-10-13T05:18:49.920Z,5.65
2022-10-13T05:21:19.023Z,6.53
2022-10-13T05:23:46.211Z,5.78
2022-10-13T05:26:17.831Z,3.72
2022-10-13T05:28:44.772Z,5.97
2022-10-13T05:31:19.386Z,6.43
2022-10-13T05:33:46.744Z,6.85
2022-10-13T05:36:19.328Z,4.32
2022-10-13T05:38:51.857Z,4.97
2022-10-13T05:41:18.804Z,6.97
2022-10-13T05:43:45.499Z,5.47
2022-10-13T05:46:12.275Z,5.05
2022-10-13T05:48:39.216Z,5.63
2022-10-13T05:51:16.191Z,7.00
2022-10-13T05:53:51.084Z,6.70
2022-10-13T05:58:53.862Z,5.18
2022-10-13T06:01:24.645Z,7.40
2022-10-13T06:03:53.547Z,8.38
2022-10-13T06:06:20.399Z,7.93
2022-10-13T06:08:46.995Z,7.88
2022-10-13T06:11:13.660Z,5.22
2022-10-13T06:13:41.852Z,7.40
2022-10-13T06:16:08.968Z,5.88
2022-10-13T06:18:35.639Z,7.43
2022-10-13T06:21:02.383Z,9.57
2022-10-13T06:23:29.042Z,6.65
2022-10-13T06:25:55.764Z,12.65
2022-10-13T06:28:22.629Z,9.82
2022-10-13T06:30:59.086Z,9.80
2022-10-13T06:33:26.228Z,8.75
2022-10-13T06:35:54.296Z,5.55
2022-10-13T06:38:20.933Z,8.80
2022-10-13T06:40:47.582Z,6.65
2022-10-13T06:43:14.975Z,6.63
2022-10-13T06:45:42.055Z,8.65
2022-10-13T06:48:08.833Z,8.27
2022-10-13T06:50:39.427Z,11.65
2022-10-13T06:53:08.696Z,7.30
2022-10-13T06:55:35.459Z,7.70
2022-10-13T06:58:02.068Z,10.52
2022-10-13T07:00:28.899Z,16.08
2022-10-13T07:02:55.594Z,10.70
2022-10-13T07:05:22.266Z,6.53
2022-10-13T07:07:52.235Z,9.65
2022-10-13T07:10:18.865Z,15.10
2022-10-13T07:12:45.539Z,6.78
2022-10-13T07:15:12.478Z,13.05
2022-10-13T07:17:39.302Z,9.82
2022-10-13T07:20:07.495Z,8.38
2022-10-13T07:22:34.292Z,9.68
2022-10-13T07:25:01.052Z,15.57
2022-10-13T07:27:28.458Z,13.82
2022-10-13T07:29:55.114Z,10.60
2022-10-13T07:32:21.764Z,8.60
2022-10-13T07:34:51.470Z,11.35
2022-10-13T07:37:18.656Z,11.15
2022-10-13T07:39:45.462Z,14.63
2022-10-13T07:42:12.270Z,9.93
2022-10-13T07:44:38.914Z,8.98
2022-10-13T07:47:05.779Z,8.50
2022-10-13T07:49:32.461Z,16.95
2022-10-13T07:51:59.098Z,10.50
2022-10-13T07:54:27.454Z,12.60
2022-10-13T07:56:56.092Z,9.55
2022-10-13T07:59:22.943Z,9.90
2022-10-13T08:01:50.522Z,14.10
2022-10-13T08:04:17.319Z,9.07
2022-10-13T08:06:46.184Z,9.00
2022-10-13T08:09:13.047Z,10.80
2022-10-13T08:11:39.730Z,16.88
2022-10-13T08:14:06.434Z,13.68
2022-10-13T08:16:33.287Z,12.88
2022-10-13T08:19:00.479Z,8.15
2022-10-13T08:21:56.428Z,9.82
2022-10-13T08:24:17.287Z,14.98
2022-10-13T08:26:46.511Z,13.52
2022-10-13T08:29:21.921Z,6.57
2022-10-13T08:34:22.895Z,8.15
2022-10-13T08:36:53.458Z,8.27
2022-10-13T08:39:22.583Z,10.00
2022-10-13T08:41:49.867Z,8.23
2022-10-13T08:48:00.253Z,9.75
2022-10-13T08:50:33.960Z,8.52
2022-10-13T08:53:12.760Z,8.60
2022-10-13T08:55:48.696Z,9.15
2022-10-13T08:58:21.704Z,8.43
2022-10-13T09:00:48.558Z,12.90
2022-10-13T09:03:20.108Z,9.40
2022-10-13T09:06:17.316Z,11.38
2022-10-13T09:09:03.891Z,10.40
2022-10-13T09:11:34.183Z,7.15
2022-10-13T09:14:04.157Z,7.38
2022-10-13T09:16:40.446Z,9.90
2022-10-13T09:19:19.671Z,12.90
2022-10-13T09:21:46.980Z,7.00
2022-10-13T09:24:20.874Z,13.15
2022-10-13T09:26:50.276Z,8.57
2022-10-13T09:29:21.387Z,7.40
2022-10-13T09:31:48.099Z,5.95
2022-10-13T09:34:14.659Z,8.35
2022-10-13T09:36:56.447Z,10.23
2022-10-13T09:39:23.242Z,6.00
2022-10-13T09:41:50.191Z,4.07
2022-10-13T09:44:29.715Z,6.20
2022-10-13T09:47:20.796Z,6.32
2022-10-13T09:50:06.455Z,5.75
2022-10-13T09:52:35.411Z,6.72
2022-10-13T09:55:02.150Z,8.65
2022-10-13T09:57:47.307Z,3.22
2022-10-13T10:00:21.884Z,3.10
2022-10-13T10:03:21.411Z,4.88
2022-10-13T10:05:59.560Z,11.27
2022-10-13T10:08:33.847Z,4.30
2022-10-13T10:11:14.073Z,8.65
2022-10-13T10:13:41.298Z,7.50
2022-10-13T10:16:19.735Z,5.03
2022-10-13T10:18:58.887Z,4.60
2022-10-13T10:21:43.996Z,2.13
2022-10-13T10:24:24.885Z,2.30
2022-10-13T10:27:06.611Z,2.50
2022-10-13T10:29:55.077Z,7.30
2022-10-13T10:32:24.729Z,3.78
2022-10-13T10:34:53.927Z,4.60
2022-10-13T10:37:43.989Z,5.65
2022-10-13T10:40:37.131Z,10.40
2022-10-13T10:43:17.045Z,5.40
2022-10-13T10:45:47.588Z,4.82
2022-10-13T10:48:23.060Z,3.60
2022-10-13T10:50:53.477Z,4.00
2022-10-13T10:53:31.994Z,6.20
2022-10-13T10:56:15.734Z,5.50
2022-10-13T10:59:21.386Z,6.80
2022-10-13T11:02:07.616Z,9.60
2022-10-13T11:04:40.426Z,4.60
2022-10-13T11:07:24.551Z,5.00
2022-10-13T11:09:51.411Z,7.32
2022-10-13T11:12:21.188Z,7.60
2022-10-13T11:15:03.460Z,5.07
2022-10-13T11:17:38.011Z,4.35
2022-10-13T11:20:25.049Z,6.43
2022-10-13T11:23:00.668Z,6.88
2022-10-13T11:25:44.750Z,6.82
2022-10-13T11:28:23.355Z,7.15
2022-10-13T11:31:05.554Z,10.85
2022-10-13T11:33:38.284Z,10.63
2022-10-13T11:36:29.734Z,8.65
2022-10-13T11:39:27.929Z,5.53
2022-10-13T11:42:09.617Z,6.32
2022-10-13T11:45:21.304Z,4.80
2022-10-13T11:48:06.277Z,9.75
2022-10-13T11:50:48.525Z,6.97
2022-10-13T11:53:19.989Z,4.82
2022-10-13T11:55:58.579Z,6.05
2022-10-13T11:58:28.913Z,9.38
2022-10-13T12:01:00.254Z,2.80
2022-10-13T12:03:34.932Z,11.45
2022-10-13T12:06:06.500Z,9.00
2022-10-13T12:08:35.923Z,3.88
2022-10-13T12:11:07.751Z,5.70
2022-10-13T12:13:36.402Z,5.00
2022-10-13T12:16:08.324Z,8.15
2022-10-13T12:18:39.354Z,5.90
2022-10-13T12:21:10.823Z,7.82
2022-10-13T12:23:38.025Z,5.20
2022-10-13T12:26:05.814Z,4.00
2022-10-13T12:29:01.810Z,7.72
2022-10-13T12:31:38.168Z,9.35
2022-10-13T12:34:16.300Z,9.05
2022-10-13T12:36:45.584Z,9.27
2022-10-13T12:39:15.608Z,9.85
2022-10-13T12:41:45.680Z,9.88
2022-10-13T12:44:21.462Z,6.03
2022-10-13T12:46:53.767Z,3.03
2022-10-13T12:49:29.279Z,4.47
2022-10-13T12:52:20.462Z,6.10
2022-10-13T12:54:51.231Z,8.30
2022-10-13T12:57:35.297Z,9.57
2022-10-13T13:00:03.612Z,6.97
2022-10-13T13:02:32.999Z,5.97
2022-10-13T13:05:00.806Z,11.73
2022-10-13T13:07:29.766Z,5.78
2022-10-13T13:10:15.780Z,9.13
2022-10-13T13:12:43.018Z,4.70
2022-10-13T13:15:34.659Z,9.63
2022-10-13T13:18:37.205Z,8.50
2022-10-13T13:21:09.343Z,7.18
2022-10-13T13:23:36.549Z,5.18
2022-10-13T13:26:20.084Z,8.38
2022-10-13T13:28:52.293Z,4.15
2022-10-13T13:31:21.767Z,6.65
2022-10-13T13:33:48.818Z,5.03
2022-10-13T13:36:25.944Z,5.40
2022-10-13T13:38:54.232Z,8.25
2022-10-13T13:41:21.745Z,8.27
2022-10-13T13:43:48.611Z,4.72
2022-10-13T13:46:21.642Z,7.80
2022-10-13T13:48:48.364Z,10.15
2022-10-13T13:51:15.435Z,10.85
2022-10-13T13:53:42.179Z,5.88
2022-10-13T13:56:14.029Z,4.93
2022-10-13T13:58:40.766Z,8.18
2022-10-13T14:01:08.094Z,10.40
2022-10-13T14:03:34.883Z,6.65
2022-10-13T14:06:01.626Z,5.40
2022-10-13T14:08:32.297Z,7.55
2022-10-13T14:10:58.970Z,9.38
2022-10-13T14:13:25.671Z,5.78
2022-10-13T14:15:59.750Z,7.97
2022-10-13T14:18:26.615Z,7.88
2022-10-13T14:20:53.347Z,9.13
2022-10-13T14:23:20.897Z,6.00
2022-10-13T14:25:47.572Z,6.30
2022-10-13T14:28:18.044Z,5.90
2022-10-13T14:30:45.325Z,6.45
2022-10-13T14:33:11.948Z,23.42
2022-10-13T14:35:38.533Z,5.85
2022-10-13T14:38:05.164Z,4.70
2022-10-13T14:40:31.767Z,8.82
2022-10-13T14:42:58.368Z,5.25
2022-10-13T14:45:25.007Z,6.45
2022-10-13T14:47:53.681Z,5.43
2022-10-13T14:50:20.648Z,6.60
2022-10-13T14:52:47.303Z,6.22
2022-10-13T14:55:16.269Z,6.70
2022-10-13T14:57:42.860Z,6.72
2022-10-13T15:00:11.105Z,10.80
2022-10-13T15:02:37.705Z,6.30
2022-10-13T15:05:04.694Z,5.70
2022-10-13T15:07:31.296Z,5.10
2022-10-13T15:10:05.434Z,11.80
2022-10-13T15:12:32.838Z,6.50
2022-10-13T15:14:59.471Z,9.15
2022-10-13T15:17:26.170Z,6.35
2022-10-13T15:19:52.824Z,6.03
2022-10-13T15:22:20.488Z,5.80
2022-10-13T15:24:47.718Z,7.38
2022-10-13T15:27:14.450Z,6.72
2022-10-13T15:29:41.100Z,9.98
2022-10-13T15:32:13.611Z,7.63
2022-10-13T15:34:40.308Z,7.00
2022-10-13T15:37:07.539Z,5.85
2022-10-13T15:39:34.458Z,5.50
2022-10-13T15:42:01.155Z,13.48
2022-10-13T15:44:30.861Z,7.72
2022-10-13T15:47:07.810Z,9.57
2022-10-13T15:49:39.650Z,12.23
2022-10-13T15:52:06.393Z,12.20
2022-10-13T15:54:36.089Z,11.23
2022-10-13T15:57:03.123Z,9.27
2022-10-13T15:59:30.092Z,6.43
2022-10-13T16:01:56.979Z,12.20
2022-10-13T16:04:23.623Z,9.35
2022-10-13T16:06:50.250Z,10.40
2022-10-13T16:09:16.889Z,10.25
2022-10-13T16:11:43.973Z,13.68
2022-10-13T16:14:10.583Z,9.88
2022-10-13T16:16:37.518Z,8.02
2022-10-13T16:19:04.295Z,11.85
2022-10-13T16:22:23.559Z,8.38
2022-10-13T16:24:50.667Z,8.65
2022-10-13T16:27:20.407Z,6.28
2022-10-13T16:29:50.816Z,6.70
2022-10-13T16:32:44.568Z,9.23
2022-10-13T16:35:11.951Z,8.23
2022-10-13T16:37:46.350Z,7.22
2022-10-13T16:40:45.562Z,9.77
2022-10-13T16:43:37.409Z,8.18
2022-10-13T16:46:07.086Z,9.93
2022-10-13T16:48:34.232Z,8.55
2022-10-13T16:51:06.401Z,8.50
2022-10-13T16:53:34.541Z,6.85
2022-10-13T16:56:01.379Z,10.02
2022-10-13T16:58:28.233Z,7.50
2022-10-13T17:01:06.156Z,9.63
2022-10-13T17:03:32.851Z,8.57
2022-10-13T17:05:59.478Z,6.25
2022-10-13T17:08:26.542Z,6.05
2022-10-13T17:10:58.028Z,6.10
2022-10-13T17:13:25.339Z,6.53
2022-10-13T17:15:53.521Z,6.90
2022-10-13T17:18:20.762Z,12.57
2022-10-13T17:20:59.118Z,4.57
2022-10-13T17:23:26.840Z,5.32
2022-10-13T17:25:54.447Z,6.93
2022-10-13T17:28:22.392Z,6.85
2022-10-13T17:31:06.703Z,5.35
2022-10-13T17:33:35.176Z,7.53
2022-10-13T17:36:07.117Z,4.97
2022-10-13T17:38:35.041Z,5.95
2022-10-13T17:41:04.831Z,7.43
2022-10-13T17:43:36.188Z,7.10
2022-10-13T17:46:35.586Z,4.80
2022-10-13T17:48:58.629Z,7.95
2022-10-13T17:51:25.661Z,6.07
2022-10-13T17:53:52.860Z,11.13
2022-10-13T17:56:23.206Z,5.22
2022-10-13T17:58:51.394Z,6.38
2022-10-13T18:01:45.201Z,7.13
2022-10-13T18:04:16.844Z,6.18
2022-10-13T18:06:44.543Z,5.70
2022-10-13T18:09:17.057Z,5.82
2022-10-13T18:11:49.758Z,7.82
2022-10-13T18:14:18.601Z,9.77
2022-10-13T18:16:45.852Z,8.57
2022-10-13T18:19:13.308Z,8.82
2022-10-13T18:21:40.083Z,7.80
2022-10-13T18:24:07.974Z,10.82
2022-10-13T18:26:37.538Z,9.88
2022-10-13T18:29:06.314Z,9.02
2022-10-13T18:31:36.183Z,15.90
2022-10-13T18:34:10.339Z,9.35
2022-10-13T18:36:43.797Z,9.73
2022-10-13T18:39:16.369Z,12.98
2022-10-13T18:41:43.045Z,8.45
2022-10-13T18:44:10.545Z,9.15
2022-10-13T18:46:38.940Z,11.75
2022-10-13T18:49:06.842Z,12.20
2022-10-13T18:51:36.206Z,9.50
2022-10-13T18:54:04.272Z,6.85
2022-10-13T18:56:32.377Z,11.35
2022-10-13T18:59:01.776Z,14.25
2022-10-13T19:01:31.397Z,10.35
2022-10-13T19:03:58.603Z,13.13
2022-10-13T19:06:27.371Z,11.73
2022-10-13T19:09:02.087Z,9.85
2022-10-13T19:11:30.118Z,11.20
2022-10-13T19:13:58.622Z,8.38
2022-10-13T19:16:26.772Z,11.43
2022-10-13T19:18:53.853Z,11.25
2022-10-13T19:21:22.231Z,9.43
2022-10-13T19:23:50.993Z,11.80
2022-10-13T19:26:24.042Z,10.77
2022-10-13T19:28:59.921Z,7.72
2022-10-13T19:31:28.984Z,10.50
2022-10-13T19:33:57.525Z,8.07
2022-10-13T19:36:30.896Z,8.23
2022-10-13T19:38:58.245Z,12.45
2022-10-13T19:41:28.107Z,12.18
2022-10-13T19:43:54.822Z,12.85
2022-10-13T19:46:22.397Z,9.60
2022-10-13T19:48:49.087Z,6.10
2022-10-13T19:51:16.314Z,12.95
2022-10-13T19:53:43.088Z,6.53
2022-10-13T19:56:30.263Z,10.43
2022-10-13T19:58:57.502Z,15.63
2022-10-13T20:01:24.429Z,5.80
2022-10-13T20:03:51.574Z,9.98
2022-10-13T20:06:19.481Z,11.80
2022-10-13T20:08:47.130Z,11.98
2022-10-13T20:11:23.386Z,8.35
2022-10-13T20:16:22.403Z,7.78
2022-10-13T20:18:57.668Z,11.38
2022-10-13T20:21:25.760Z,4.93
2022-10-13T20:23:53.074Z,10.63
2022-10-13T20:26:20.842Z,12.80
2022-10-13T20:28:49.084Z,9.82
2022-10-13T20:31:18.388Z,6.07
2022-10-13T20:33:45.610Z,8.73
2022-10-13T20:36:14.896Z,7.85
2022-10-13T20:38:42.214Z,6.82
2022-10-13T20:41:14.916Z,5.47
2022-10-13T20:43:41.537Z,8.80
2022-10-13T20:46:08.772Z,8.23
2022-10-13T20:49:05.129Z,13.07
2022-10-13T20:51:27.601Z,8.45
2022-10-13T20:53:54.616Z,10.80
2022-10-13T20:56:24.085Z,9.02
2022-10-13T20:58:51.692Z,13.25
2022-10-13T21:01:20.946Z,13.52
2022-10-13T21:03:52.970Z,8.57
2022-10-13T21:06:20.714Z,8.57
2022-10-13T21:08:47.727Z,7.88
2022-10-13T21:11:16.469Z,6.85
2022-10-13T21:13:44.089Z,11.68
2022-10-13T21:16:19.432Z,9.38
2022-10-13T21:18:48.148Z,9.88
2022-10-13T21:21:17.381Z,9.52
2022-10-13T21:23:44.252Z,11.65
2022-10-13T21:26:11.268Z,9.15
2022-10-13T21:28:39.287Z,12.27
2022-10-13T21:31:10.996Z,14.63
2022-10-13T21:33:39.217Z,8.50
2022-10-13T21:36:07.918Z,10.52
2022-10-13T21:38:35.696Z,12.73
2022-10-13T21:41:07.387Z,12.52
2022-10-13T21:43:34.614Z,17.65
2022-10-13T21:46:11.578Z,14.82
2022-10-13T21:48:38.921Z,13.95
2022-10-13T21:51:26.744Z,15.63
2022-10-13T21:53:56.466Z,13.68
2022-10-13T21:56:25.050Z,22.60
2022-10-13T21:58:52.113Z,14.43
2022-10-13T22:01:19.856Z,17.95
2022-10-13T22:03:47.699Z,14.63
2022-10-13T22:06:19.152Z,15.55
2022-10-13T22:08:49.044Z,17.25
2022-10-13T22:11:16.670Z,23.58
2022-10-13T22:13:43.518Z,13.27
2022-10-13T22:16:35.035Z,21.05
2022-10-13T22:19:02.252Z,14.60
2022-10-13T22:21:32.150Z,21.80
2022-10-13T22:24:04.972Z,17.98
2022-10-13T22:26:34.799Z,22.25
2022-10-13T22:29:03.344Z,17.45
2022-10-13T22:31:30.703Z,18.05
2022-10-13T22:33:57.282Z,14.85
2022-10-13T22:36:25.948Z,16.33
2022-10-13T22:38:55.195Z,15.85
2022-10-13T22:41:23.031Z,13.13
2022-10-13T22:43:54.727Z,14.00
2022-10-13T22:46:24.058Z,14.38
2022-10-13T22:48:50.909Z,18.20
2022-10-13T22:51:20.999Z,13.93
2022-10-13T22:53:48.916Z,18.08
2022-10-13T22:56:18.890Z,15.13
2022-10-13T22:58:52.786Z,14.65
2022-10-13T23:01:20.316Z,14.40
2022-10-13T23:03:58.066Z,19.25
2022-10-13T23:06:30.473Z,16.75
2022-10-13T23:09:00.365Z,17.58
2022-10-13T23:11:28.104Z,17.90
2022-10-13T23:13:54.772Z,17.48
2022-10-13T23:16:23.861Z,14.18
2022-10-13T23:18:51.550Z,15.35
2022-10-13T23:21:19.708Z,19.55
2022-10-13T23:23:47.265Z,20.92
2022-10-13T23:26:16.940Z,16.55
2022-10-13T23:28:44.788Z,15.82
2022-10-13T23:31:14.407Z,23.15
2022-10-13T23:33:41.571Z,18.15
2022-10-13T23:36:10.960Z,16.30
2022-10-13T23:38:37.538Z,22.23
2022-10-13T23:41:10.357Z,17.40
2022-10-13T23:43:37.098Z,17.27
2022-10-13T23:46:04.577Z,20.95
2022-10-13T23:48:31.267Z,16.50
2022-10-13T23:50:57.979Z,16.67
2022-10-13T23:53:24.953Z,16.50
2022-10-13T23:55:51.569Z,15.77
2022-10-13T23:58:18.193Z,13.80
